Terminal Aerodrome Forecast
Issued by NWS

Home | Current Version | Previous Version | Text Only | Print | Product List | Glossary On
Versions: 1 2 3 4 5 6 7 8 9 10 11 12 13 14 15 16 17 18 19 20 21 22 23 24 25 26 27 28 29 30 31 32 33 34
000
FTUS46 KMTR 131519 AAA
TAFMRY
TAF AMD
KMRY 131519Z 1315/1412 VRB03KT 1SM BR OVC002
      TEMPO 1315/1317 1/4SM FG VV001
     FM131800 14004KT P6SM OVC012
     FM132200 24005KT P6SM BKN025 OVC040
     FM140300 21004KT P6SM -RA OVC015
     FM140600 VRB03KT 4SM BR OVC007=

USA.gov is the U.S. government's official web portal to all federal, state and local government web resources and services.